createdAt,value
2019-01-21T00:02:17.371Z,97352.45
2019-01-21T00:04:47.701Z,97351.11
2019-01-21T00:07:17.933Z,97353.43
2019-01-21T00:09:48.298Z,97352.16
2019-01-21T00:12:18.545Z,97345.95
2019-01-21T00:14:48.817Z,97354.09
2019-01-21T00:17:22.458Z,97351.52
2019-01-21T00:19:51.174Z,97346.61
2019-01-21T00:22:22.425Z,97348.54
2019-01-21T00:24:52.705Z,97352.20
2019-01-21T00:27:22.982Z,97353.55
2019-01-21T00:29:53.454Z,97352.20
2019-01-21T00:32:23.745Z,97354.50
2019-01-21T00:34:54.055Z,97354.13
2019-01-21T00:37:24.289Z,97359.69
2019-01-21T00:39:54.549Z,97360.20
2019-01-21T00:42:24.921Z,97365.06
2019-01-21T00:44:55.211Z,97359.33
2019-01-21T00:47:29.803Z,97361.73
2019-01-21T00:49:57.411Z,97371.13
2019-01-21T00:52:27.743Z,97363.66
2019-01-21T00:54:57.974Z,97366.23
2019-01-21T00:57:28.239Z,97373.53
2019-01-21T00:59:58.486Z,97372.19
2019-01-21T01:02:28.815Z,97376.22
2019-01-21T01:04:59.669Z,97379.87
2019-01-21T01:07:30.070Z,97379.30
2019-01-21T01:10:00.486Z,97381.91
2019-01-21T01:12:30.688Z,97381.98
2019-01-21T01:15:01.023Z,97380.28
2019-01-21T01:17:37.111Z,97387.36
2019-01-21T01:20:05.357Z,97381.63
2019-01-21T01:22:35.633Z,97381.73
2019-01-21T01:25:06.300Z,97387.94
2019-01-21T01:27:36.611Z,97384.89
2019-01-21T01:30:07.939Z,97387.10
2019-01-21T01:32:39.231Z,97385.00
2019-01-21T01:35:10.303Z,97386.81
2019-01-21T01:37:40.681Z,97388.16
2019-01-21T01:40:13.803Z,97388.16
2019-01-21T01:42:44.113Z,97386.48
2019-01-21T01:45:17.782Z,97389.28
2019-01-21T01:47:48.102Z,97379.48
2019-01-21T01:50:18.468Z,97378.54
2019-01-21T01:52:48.742Z,97378.25
2019-01-21T01:55:19.081Z,97375.56
2019-01-21T01:57:49.338Z,97380.56
2019-01-21T02:00:19.817Z,97373.45
2019-01-21T02:02:50.099Z,97379.30
2019-01-21T02:05:20.420Z,97367.72
2019-01-21T02:07:50.752Z,97373.56
2019-01-21T02:10:20.989Z,97376.72
2019-01-21T02:12:51.493Z,97375.38
2019-01-21T02:15:21.758Z,97376.72
2019-01-21T02:17:52.396Z,97373.38
2019-01-21T02:20:22.708Z,97378.86
2019-01-21T02:22:55.959Z,97382.38
2019-01-21T02:25:30.907Z,97381.55
2019-01-21T02:28:52.474Z,97379.91
2019-01-21T02:31:51.748Z,97377.22
2019-01-21T02:34:58.995Z,97380.85
2019-01-21T02:37:50.077Z,97372.91
2019-01-21T02:40:41.129Z,97378.27
2019-01-21T02:43:48.376Z,97373.88
2019-01-21T02:47:05.405Z,97377.98
2019-01-21T02:50:00.885Z,97375.30
2019-01-21T02:53:13.157Z,97379.53
2019-01-21T02:56:12.163Z,97380.48
2019-01-21T02:59:44.931Z,97378.77
2019-01-21T03:02:37.772Z,97384.61
2019-01-21T03:05:43.676Z,97383.84
2019-01-21T03:08:37.603Z,97379.92
2019-01-21T03:11:49.014Z,97380.98
2019-01-21T03:14:48.457Z,97374.66
2019-01-21T03:17:48.735Z,97373.90
2019-01-21T03:20:28.755Z,97377.42
2019-01-21T03:23:34.669Z,97373.97
2019-01-21T03:26:58.487Z,97375.31
2019-01-21T03:30:08.706Z,97371.39
2019-01-21T03:33:16.590Z,97374.55
2019-01-21T03:36:14.998Z,97373.31
2019-01-21T03:39:40.494Z,97370.92
2019-01-21T03:42:32.974Z,97373.13
2019-01-21T03:45:56.504Z,97366.70
2019-01-21T03:48:37.789Z,97371.97
2019-01-21T03:51:50.768Z,97369.97
2019-01-21T03:54:35.209Z,97374.08
2019-01-21T03:57:32.833Z,97367.77
2019-01-21T04:00:46.801Z,97370.81
2019-01-21T04:03:48.835Z,97370.34
2019-01-21T04:06:37.391Z,97374.84
2019-01-21T04:09:29.207Z,97373.39
2019-01-21T04:12:35.498Z,97373.39
2019-01-21T04:15:30.559Z,97375.72
2019-01-21T04:18:56.305Z,97379.34
2019-01-21T04:22:10.145Z,97377.16
2019-01-21T04:25:23.826Z,97385.28
2019-01-21T04:28:22.437Z,97381.66
2019-01-21T04:31:30.924Z,97389.31
2019-01-21T04:34:20.127Z,97391.16
2019-01-21T04:37:27.251Z,97394.31
2019-01-21T04:40:44.739Z,97390.19
2019-01-21T04:43:57.392Z,97393.73
2019-01-21T04:47:13.577Z,97393.34
2019-01-21T04:50:27.836Z,97395.66
2019-01-21T04:53:20.218Z,97410.02
2019-01-21T04:56:35.605Z,97413.68
2019-01-21T04:59:29.947Z,97414.25
2019-01-21T05:02:39.101Z,97417.11
2019-01-21T05:05:37.859Z,97415.77
2019-01-21T05:08:48.574Z,97415.41
2019-01-21T05:11:57.573Z,97413.59
2019-01-21T05:15:09.778Z,97423.16
2019-01-21T05:18:20.004Z,97419.61
2019-01-21T05:21:23.708Z,97421.92
2019-01-21T05:24:35.410Z,97423.37
2019-01-21T05:27:46.653Z,97425.18
2019-01-21T05:30:41.444Z,97422.97
2019-01-21T05:33:48.348Z,97428.33
2019-01-21T05:36:57.795Z,97435.05
2019-01-21T05:40:04.013Z,97434.94
2019-01-21T05:43:02.220Z,97436.28
2019-01-21T05:45:59.700Z,97434.10
2019-01-21T05:49:10.313Z,97427.66
2019-01-21T05:52:17.330Z,97435.70
2019-01-21T05:55:15.268Z,97440.31
2019-01-21T05:58:38.122Z,97440.13
2019-01-21T06:01:35.664Z,97444.16
2019-01-21T06:04:25.694Z,97443.38
2019-01-21T06:07:14.899Z,97449.72
2019-01-21T06:10:21.947Z,97445.59
2019-01-21T06:13:52.130Z,97449.45
2019-01-21T06:17:06.537Z,97453.07
2019-01-21T06:20:33.547Z,97450.28
2019-01-21T06:23:32.479Z,97450.48
2019-01-21T06:26:52.700Z,97456.72
2019-01-21T06:29:58.433Z,97450.88
2019-01-21T06:33:14.617Z,97458.53
2019-01-21T06:36:23.626Z,97458.46
2019-01-21T06:39:33.066Z,97457.95
2019-01-21T06:42:17.092Z,97460.17
2019-01-21T06:45:29.993Z,97453.36
2019-01-21T06:48:40.725Z,97463.52
2019-01-21T06:51:32.855Z,97467.08
2019-01-21T06:54:42.925Z,97465.26
2019-01-21T06:57:42.732Z,97462.87
2019-01-21T07:00:32.233Z,97471.00
2019-01-21T07:03:34.952Z,97470.06
2019-01-21T07:06:43.599Z,97475.89
2019-01-21T07:09:34.128Z,97476.56
2019-01-21T07:12:45.820Z,97485.13
2019-01-21T07:16:03.246Z,97483.27
2019-01-21T07:19:30.554Z,97483.20
2019-01-21T07:23:09.703Z,97488.00
2019-01-21T07:26:39.625Z,97489.81
2019-01-21T07:29:48.285Z,97492.50
2019-01-21T07:32:39.073Z,97494.31
2019-01-21T07:35:47.594Z,97492.39
2019-01-21T07:38:49.716Z,97490.11
2019-01-21T07:41:36.723Z,97493.16
2019-01-21T07:44:53.247Z,97498.43
2019-01-21T07:48:19.745Z,97500.17
2019-01-21T07:51:15.474Z,97497.85
2019-01-21T07:54:25.707Z,97494.33
2019-01-21T07:57:27.343Z,97494.22
2019-01-21T08:00:11.949Z,97499.59
2019-01-21T08:02:58.896Z,97505.34
2019-01-21T08:05:53.138Z,97510.13
2019-01-21T08:08:44.969Z,97508.78
2019-01-21T08:11:52.812Z,97511.47
2019-01-21T08:14:50.801Z,97507.84
2019-01-21T08:17:46.939Z,97514.56
2019-01-21T08:20:32.163Z,97514.09
2019-01-21T08:23:17.822Z,97515.33
2019-01-21T08:26:02.604Z,97508.21
2019-01-21T08:29:23.098Z,97513.52
2019-01-21T08:32:12.479Z,97525.50
2019-01-21T08:34:49.510Z,97521.06
2019-01-21T08:37:43.497Z,97525.50
2019-01-21T08:41:06.380Z,97523.68
2019-01-21T08:44:13.611Z,97528.18
2019-01-21T08:47:12.502Z,97526.44
2019-01-21T08:50:15.107Z,97528.66
2019-01-21T08:53:22.223Z,97533.85
2019-01-21T08:56:23.282Z,97531.06
2019-01-21T08:59:29.200Z,97533.75
2019-01-21T09:02:37.754Z,97536.53
2019-01-21T09:06:03.702Z,97536.61
2019-01-21T09:09:30.550Z,97544.09
2019-01-21T09:12:29.980Z,97547.75
2019-01-21T09:15:38.432Z,97551.67
2019-01-21T09:18:48.466Z,97554.77
2019-01-21T09:21:43.932Z,97557.52
2019-01-21T09:25:07.418Z,97549.97
2019-01-21T09:28:24.738Z,97556.94
2019-01-21T09:31:31.107Z,97557.05
2019-01-21T09:34:57.626Z,97554.26
2019-01-21T09:38:00.281Z,97558.62
2019-01-21T09:41:03.323Z,97554.22
2019-01-21T09:43:51.079Z,97555.46
2019-01-21T09:46:46.864Z,97550.19
2019-01-21T09:49:15.508Z,97549.22
2019-01-21T09:51:59.616Z,97549.11
2019-01-21T09:54:29.957Z,97544.72
2019-01-21T09:57:00.356Z,97535.20
2019-01-21T09:59:31.220Z,97538.37
2019-01-21T10:02:01.917Z,97539.23
2019-01-21T10:04:39.960Z,97540.11
2019-01-21T10:07:23.595Z,97540.48
2019-01-21T10:10:37.838Z,97541.82
2019-01-21T10:14:10.417Z,97537.72
2019-01-21T10:17:03.153Z,97527.55
2019-01-21T10:20:01.734Z,97524.47
2019-01-21T10:22:58.448Z,97518.52
2019-01-21T10:25:46.828Z,97519.49
2019-01-21T10:28:43.512Z,97516.30
2019-01-21T10:32:01.269Z,97516.30
2019-01-21T10:35:23.456Z,97514.89
2019-01-21T10:38:28.901Z,97508.17
2019-01-21T10:41:23.497Z,97501.92
2019-01-21T10:44:26.844Z,97505.09
2019-01-21T10:47:44.307Z,97496.55
2019-01-21T10:50:24.941Z,97492.53
2019-01-21T10:53:33.480Z,97496.55
2019-01-21T10:56:54.218Z,97494.73
2019-01-21T11:00:11.681Z,97495.21
2019-01-21T11:03:08.092Z,97491.66
2019-01-21T11:06:12.606Z,97486.17
2019-01-21T11:09:26.629Z,97478.98
2019-01-21T11:12:30.875Z,97472.84
2019-01-21T11:15:24.410Z,97475.24
2019-01-21T11:18:20.968Z,97464.31
2019-01-21T11:21:53.843Z,97467.37
2019-01-21T11:24:49.977Z,97461.63
2019-01-21T11:27:53.244Z,97461.23
2019-01-21T11:30:59.225Z,97463.84
2019-01-21T11:34:09.659Z,97458.95
2019-01-21T11:36:59.135Z,97456.63
2019-01-21T11:39:42.270Z,97455.86
2019-01-21T11:43:18.035Z,97446.86
2019-01-21T11:46:05.264Z,97443.30
2019-01-21T11:48:57.496Z,97446.38
2019-01-21T11:52:17.548Z,97437.45
2019-01-21T11:55:27.422Z,97437.34
2019-01-21T11:58:30.734Z,97434.66
2019-01-21T12:01:41.512Z,97433.79
2019-01-21T12:04:33.657Z,97435.06
2019-01-21T12:07:48.343Z,97430.27
2019-01-21T12:10:47.184Z,97431.11
2019-01-21T12:13:57.041Z,97431.50
2019-01-21T12:17:06.072Z,97420.28
2019-01-21T12:20:07.241Z,97414.05
2019-01-21T12:23:14.071Z,97415.75
2019-01-21T12:26:09.822Z,97411.25
2019-01-21T12:29:18.096Z,97410.02
2019-01-21T12:32:34.328Z,97410.02
2019-01-21T12:35:38.962Z,97415.75
2019-01-21T12:38:45.918Z,97402.90
2019-01-21T12:41:56.810Z,97404.53
2019-01-21T12:44:55.503Z,97402.24
2019-01-21T12:47:58.655Z,97400.03
2019-01-21T12:51:05.780Z,97396.88
2019-01-21T12:54:12.960Z,97396.00
2019-01-21T12:57:33.569Z,97397.34
2019-01-21T13:00:47.794Z,97387.94
2019-01-21T13:03:54.805Z,97381.70
2019-01-21T13:07:02.037Z,97379.48
2019-01-21T13:10:32.563Z,97376.72
2019-01-21T13:13:50.251Z,97374.11
2019-01-21T13:17:04.724Z,97369.89
2019-01-21T13:20:33.546Z,97366.73
2019-01-21T13:23:51.146Z,97364.13
2019-01-21T13:27:18.038Z,97367.50
2019-01-21T13:30:41.989Z,97361.62
2019-01-21T13:33:45.056Z,97360.28
2019-01-21T13:36:55.210Z,97362.02
2019-01-21T13:39:56.499Z,97363.47
2019-01-21T13:42:37.714Z,97360.67
2019-01-21T13:46:00.268Z,97367.10
2019-01-21T13:48:47.198Z,97375.05
2019-01-21T13:52:01.408Z,97370.55
2019-01-21T13:55:12.924Z,97366.41
2019-01-21T13:58:19.374Z,97362.59
2019-01-21T14:00:59.729Z,97367.50
2019-01-21T14:04:21.677Z,97367.97
2019-01-21T14:07:33.754Z,97356.17
2019-01-21T14:10:38.663Z,97359.52
2019-01-21T14:13:39.615Z,97358.45
2019-01-21T14:17:07.100Z,97362.96
2019-01-21T14:20:21.259Z,97366.23
2019-01-21T14:23:32.266Z,97366.16
2019-01-21T14:26:50.491Z,97358.75
2019-01-21T14:29:37.034Z,97358.75
2019-01-21T14:32:34.583Z,97360.49
2019-01-21T14:35:51.736Z,97357.70
2019-01-21T14:38:50.862Z,97357.41
2019-01-21T14:42:05.277Z,97361.84
2019-01-21T14:45:22.353Z,97358.75
2019-01-21T14:48:15.939Z,97353.78
2019-01-21T14:51:01.935Z,97359.16
2019-01-21T14:54:22.280Z,97361.25
2019-01-21T14:57:34.083Z,97361.44
2019-01-21T15:00:32.537Z,97355.95
2019-01-21T15:03:42.341Z,97348.76
2019-01-21T15:06:25.010Z,97355.95
2019-01-21T15:09:10.542Z,97351.05
2019-01-21T15:12:12.955Z,97355.08
2019-01-21T15:15:19.147Z,97351.05
2019-01-21T15:18:54.774Z,97350.58
2019-01-21T15:22:04.810Z,97344.33
2019-01-21T15:25:12.416Z,97350.11
2019-01-21T15:28:19.626Z,97342.23
2019-01-21T15:31:46.399Z,97347.60
2019-01-21T15:34:50.507Z,97344.66
2019-01-21T15:37:52.914Z,97344.66
2019-01-21T15:41:19.480Z,97345.72
2019-01-21T15:44:16.814Z,97350.11
2019-01-21T15:47:09.422Z,97349.27
2019-01-21T15:49:45.586Z,97350.22
2019-01-21T15:52:55.963Z,97347.17
2019-01-21T15:55:37.015Z,97348.12
2019-01-21T15:58:34.155Z,97349.56
2019-01-21T16:01:33.904Z,97345.14
2019-01-21T16:04:29.677Z,97343.91
2019-01-21T16:07:38.202Z,97340.35
2019-01-21T16:11:09.369Z,97343.80
2019-01-21T16:14:12.016Z,97347.47
2019-01-21T16:17:03.824Z,97340.35
2019-01-21T16:19:57.382Z,97344.02
2019-01-21T16:23:30.453Z,97346.99
2019-01-21T16:26:14.023Z,97342.38
2019-01-21T16:29:05.528Z,97339.34
2019-01-21T16:32:06.644Z,97336.91
2019-01-21T16:35:05.307Z,97338.64
2019-01-21T16:38:09.241Z,97332.04
2019-01-21T16:41:05.352Z,97332.30
2019-01-21T16:43:36.515Z,97336.72
2019-01-21T16:46:06.871Z,97334.32
2019-01-21T16:48:37.238Z,97335.55
2019-01-21T16:51:09.119Z,97333.45
2019-01-21T16:53:41.530Z,97332.22
2019-01-21T16:56:11.889Z,97336.14
2019-01-21T16:58:42.410Z,97334.80
2019-01-21T17:01:12.721Z,97336.61
2019-01-21T17:03:44.147Z,97341.51
2019-01-21T17:06:14.595Z,97338.06
2019-01-21T17:08:44.968Z,97341.03
2019-01-21T17:11:15.297Z,97336.50
2019-01-21T17:13:45.718Z,97337.38
2019-01-21T17:16:16.057Z,97333.73
2019-01-21T17:18:46.499Z,97335.84
2019-01-21T17:21:16.868Z,97329.59
2019-01-21T17:23:47.220Z,97331.05
2019-01-21T17:26:19.588Z,97332.28
2019-01-21T17:28:49.963Z,97323.75
2019-01-21T17:31:20.370Z,97327.78
2019-01-21T17:33:50.717Z,97329.12
2019-01-21T17:36:21.321Z,97331.23
2019-01-21T17:38:51.777Z,97324.59
2019-01-21T17:41:22.243Z,97321.06
2019-01-21T17:43:53.582Z,97326.44
2019-01-21T17:46:23.930Z,97329.20
2019-01-21T17:48:54.356Z,97329.31
2019-01-21T17:51:24.778Z,97327.09
2019-01-21T17:53:55.143Z,97328.55
2019-01-21T17:56:25.388Z,97323.66
2019-01-21T17:58:56.745Z,97327.97
2019-01-21T18:01:27.109Z,97325.09
2019-01-21T18:03:59.543Z,97318.37
2019-01-21T18:06:35.394Z,97316.92
2019-01-21T18:09:09.739Z,97322.77
2019-01-21T18:11:41.445Z,97317.87
2019-01-21T18:14:13.151Z,97319.50
2019-01-21T18:16:43.526Z,97314.12
2019-01-21T18:19:13.962Z,97322.59
2019-01-21T18:21:44.458Z,97319.98
2019-01-21T18:24:14.814Z,97324.52
2019-01-21T18:26:45.217Z,97323.06
2019-01-21T18:29:15.638Z,97324.00
2019-01-21T18:31:46.084Z,97325.34
2019-01-21T18:34:16.548Z,97326.22
2019-01-21T18:36:46.961Z,97322.59
2019-01-21T18:39:19.747Z,97323.42
2019-01-21T18:41:50.151Z,97326.03
2019-01-21T18:44:20.795Z,97314.41
2019-01-21T18:46:52.239Z,97321.13
2019-01-21T18:49:23.013Z,97310.97
2019-01-21T18:51:53.360Z,97317.29
2019-01-21T18:54:24.516Z,97316.34
2019-01-21T18:56:55.037Z,97315.19
2019-01-21T18:59:27.279Z,97317.29
2019-01-21T19:01:58.010Z,97318.55
2019-01-21T19:04:28.496Z,97320.27
2019-01-21T19:06:58.978Z,97320.66
2019-01-21T19:09:29.594Z,97321.89
2019-01-21T19:12:00.146Z,97320.66
2019-01-21T19:14:31.453Z,97318.45
2019-01-21T19:17:01.835Z,97325.92
2019-01-21T19:19:32.322Z,97325.52
2019-01-21T19:22:02.954Z,97320.44
2019-01-21T19:24:33.335Z,97321.78
2019-01-21T19:27:03.881Z,97319.48
2019-01-21T19:29:34.350Z,97318.63
2019-01-21T19:32:05.008Z,97316.41
2019-01-21T19:34:35.377Z,97317.75
2019-01-21T19:37:05.720Z,97319.97
2019-01-21T19:39:36.762Z,97319.09
2019-01-21T19:42:07.763Z,97313.25
2019-01-21T19:44:38.239Z,97319.85
2019-01-21T19:47:08.627Z,97312.77
2019-01-21T19:49:39.628Z,97311.91
2019-01-21T19:52:10.554Z,97312.19
2019-01-21T19:54:41.124Z,97310.09
2019-01-21T19:57:11.454Z,97308.63
2019-01-21T19:59:41.890Z,97307.88
2019-01-21T20:02:12.655Z,97301.16
2019-01-21T20:04:43.023Z,97307.00
2019-01-21T20:07:13.337Z,97307.88
2019-01-21T20:09:43.558Z,97305.95
2019-01-21T20:12:15.175Z,97306.89
2019-01-21T20:14:45.406Z,97303.73
2019-01-21T20:17:15.696Z,97303.26
2019-01-21T20:19:46.233Z,97302.50
2019-01-21T20:22:16.721Z,97299.34
2019-01-21T20:24:47.226Z,97298.25
2019-01-21T20:27:17.645Z,97299.12
2019-01-21T20:29:48.003Z,97291.45
2019-01-21T20:32:19.008Z,97289.59
2019-01-21T20:34:52.333Z,97289.13
2019-01-21T20:37:22.823Z,97287.31
2019-01-21T20:39:53.477Z,97288.94
2019-01-21T20:42:24.127Z,97290.28
2019-01-21T20:44:54.729Z,97286.83
2019-01-21T20:47:28.480Z,97289.88
2019-01-21T20:50:00.882Z,97290.75
2019-01-21T20:52:33.955Z,97291.62
2019-01-21T20:55:04.707Z,97292.97
2019-01-21T20:57:35.016Z,97285.27
2019-01-21T21:00:06.430Z,97278.27
2019-01-21T21:02:37.873Z,97279.24
2019-01-21T21:05:10.100Z,97281.70
2019-01-21T21:07:40.483Z,97285.85
2019-01-21T21:10:10.967Z,97286.33
2019-01-21T21:12:41.358Z,97290.36
2019-01-21T21:15:15.711Z,97286.08
2019-01-21T21:17:47.666Z,97281.45
2019-01-21T21:20:18.169Z,97276.56
2019-01-21T21:22:48.533Z,97276.16
2019-01-21T21:25:19.180Z,97275.33
2019-01-21T21:27:49.623Z,97277.51
2019-01-21T21:30:30.590Z,97273.48
2019-01-21T21:33:01.109Z,97274.34
2019-01-21T21:35:31.536Z,97273.98
2019-01-21T21:38:03.261Z,97272.25
2019-01-21T21:40:33.835Z,97269.95
2019-01-21T21:43:04.353Z,97273.48
2019-01-21T21:45:35.810Z,97267.27
2019-01-21T21:48:06.109Z,97271.38
2019-01-21T21:50:36.514Z,97269.09
2019-01-21T21:53:06.928Z,97273.00
2019-01-21T21:55:37.386Z,97265.53
2019-01-21T21:58:08.095Z,97268.61
2019-01-21T22:00:38.404Z,97270.79
2019-01-21T22:03:08.731Z,97270.48
2019-01-21T22:05:39.187Z,97266.63
2019-01-21T22:08:09.504Z,97264.80
2019-01-21T22:10:39.877Z,97264.69
2019-01-21T22:13:10.267Z,97264.33
2019-01-21T22:15:41.702Z,97258.67
2019-01-21T22:18:12.129Z,97253.66
2019-01-21T22:20:42.479Z,97255.52
2019-01-21T22:23:12.901Z,97250.61
2019-01-21T22:25:43.223Z,97250.72
2019-01-21T22:28:13.634Z,97248.04
2019-01-21T22:30:43.887Z,97242.50
2019-01-21T22:33:14.838Z,97241.63
2019-01-21T22:35:45.203Z,97249.69
2019-01-21T22:38:15.585Z,97244.78
2019-01-21T22:40:45.895Z,97243.44
2019-01-21T22:43:16.355Z,97246.24
2019-01-21T22:45:46.888Z,97242.41
2019-01-21T22:48:17.161Z,97239.36
2019-01-21T22:50:47.624Z,97237.62
2019-01-21T22:53:18.042Z,97237.62
2019-01-21T22:55:48.485Z,97234.93
2019-01-21T22:58:18.785Z,97230.25
2019-01-21T23:00:59.236Z,97230.25
2019-01-21T23:03:30.751Z,97230.25
2019-01-21T23:06:02.333Z,97221.08
2019-01-21T23:08:32.689Z,97224.35
2019-01-21T23:11:03.001Z,97227.52
2019-01-21T23:13:33.285Z,97223.95
2019-01-21T23:16:03.706Z,97224.94
2019-01-21T23:18:34.500Z,97221.86
2019-01-21T23:21:04.836Z,97224.55
2019-01-21T23:23:35.197Z,97226.11
2019-01-21T23:26:05.607Z,97220.23
2019-01-21T23:28:35.904Z,97216.78
2019-01-21T23:31:07.451Z,97214.61
2019-01-21T23:33:37.940Z,97211.41
2019-01-21T23:36:08.426Z,97208.37
2019-01-21T23:38:38.821Z,97209.43
2019-01-21T23:41:09.147Z,97207.61
2019-01-21T23:43:39.420Z,97205.29
2019-01-21T23:46:09.826Z,97205.04
2019-01-21T23:48:40.148Z,97204.17
2019-01-21T23:51:10.521Z,97205.20
2019-01-21T23:53:41.014Z,97198.12
2019-01-21T23:56:11.351Z,97198.12
2019-01-21T23:58:41.858Z,97191.41
